Jomi — C6VK4 — position and weather

sailwx.info

Track history (hours):
 
Tides and Currents Weather Stations Pressure Air Temp Water Temp Dewpoint Dewpoint Depression Visibility Wind Speed Wind Dir Waves Ship Positions

Jomi

Last reported at 2016-May-03 06:33 UTC. Time now 2016-May-03 06:52 UTC.
Position N 55°54' E 012°45'.

Length 88 m; draft 6.2 m.

Type: Cargo ship. MMSI: 309701000.

Date/timePositionNaut miles runAvg speedWind from/ knotsBaromVisibWave heightAir tempDewpointWater temp
2016-May-03 06:33N 55°54' E 012°45'1111.1
2016-May-03 05:33N 55°43' E 012°41'1111.1
2016-May-03 04:33N 55°32' E 012°43'1110.8
2016-May-03 03:33N 55°21' E 012°42'9 9.3
2016-May-03 02:33N 55°16' E 012°55'1110.7
2016-May-03 01:33N 55°16' E 013°14'1111.0
2016-May-03 00:33N 55°15' E 013°33'1110.9
2016-May-02 23:33N 55°14' E 013°52'1111.0
2016-May-02 22:33N 55°14' E 014°12'1110.5
2016-May-02 21:33N 55°20' E 014°27'1110.7
2016-May-02 20:33N 55°27' E 014°41'1110.6
2016-May-02 19:33N 55°33' E 014°57'1110.6
2016-May-02 18:33N 55°38' E 015°13'1110.7
2016-May-02 17:33N 55°43' E 015°29'24 0.5
2016-Apr-30 17:33N 55°52' E 016°09'1111.2
2016-Apr-30 16:33N 55°46' E 015°52'1111.2
2016-Apr-30 15:33N 55°41' E 015°34'1111.1
2016-Apr-30 14:33N 55°35' E 015°18'1111.0
2016-Apr-30 13:33N 55°29' E 015°01'1111.3
2016-Apr-30 12:33N 55°24' E 014°43'1111.1
2016-Apr-30 11:33N 55°17' E 014°29'1010.5
2016-Apr-30 10:33N 55°11' E 014°13'1110.5
2016-Apr-30 09:33N 55°11' E 013°54'1010.4
2016-Apr-30 08:33N 55°13' E 013°36'2210.9
2016-Apr-30 06:33N 55°15' E 012°58'1110.7
2016-Apr-30 05:33N 55°18' E 012°40'10 9.7
2016-Apr-30 04:33N 55°27' E 012°41'1010.0
2016-Apr-30 03:33N 55°37' E 012°42'10 9.5
2016-Apr-30 02:33N 55°47' E 012°42'1010.0
2016-Apr-30 01:33N 55°57' E 012°44'4 3.7
2016-Apr-30 00:33N 56°00' E 012°43'0 0.0
2016-Apr-29 23:33N 56°00' E 012°43'0 0.0
2016-Apr-29 22:33N 56°00' E 012°43'0 0.0
2016-Apr-29 21:33N 56°00' E 012°43'0 0.0
2016-Apr-29 20:32N 56°00' E 012°43'0 0.0
2016-Apr-29 19:33N 56°00' E 012°43'0 0.0
2016-Apr-29 18:32N 56°00' E 012°43'0 0.0
2016-Apr-29 17:33N 56°00' E 012°43'0 0.0
2016-Apr-29 16:33N 56°00' E 012°43'0 0.0
2016-Apr-29 15:33N 56°00' E 012°43'0 0.0
2016-Apr-29 14:33N 56°00' E 012°43'0 0.0
2016-Apr-29 13:30N 56°00' E 012°43'0 0.0
2016-Apr-29 12:33N 56°00' E 012°43'0 0.0
2016-Apr-29 11:33N 56°00' E 012°43'0 0.0
2016-Apr-29 10:33N 56°00' E 012°43'0 0.0
2016-Apr-29 09:33N 56°00' E 012°43'0 0.0
2016-Apr-29 08:33N 56°00' E 012°43'0 0.0
2016-Apr-29 07:33N 56°00' E 012°43'0 0.0
2016-Apr-29 06:33N 56°00' E 012°43'0 0.0
2016-Apr-29 05:33N 56°00' E 012°43'0 0.0
2016-Apr-29 04:33N 56°00' E 012°43'0 0.0
2016-Apr-29 03:33N 56°00' E 012°43'0 0.0
2016-Apr-29 02:33N 56°00' E 012°43'0 0.0
2016-Apr-29 01:33N 56°00' E 012°43'0 0.0
2016-Apr-29 00:33N 56°00' E 012°43'0 0.0
2016-Apr-28 23:33N 56°00' E 012°43'0 0.0
2016-Apr-28 22:33N 56°00' E 012°43'0 0.0
2016-Apr-28 21:33N 56°00' E 012°43'0 0.0
2016-Apr-28 20:32N 56°00' E 012°43'0 0.0
2016-Apr-28 19:32N 56°00' E 012°43'0 0.0
2016-Apr-28 18:32N 56°00' E 012°43'0 0.0
2016-Apr-28 17:33N 56°00' E 012°43'0 0.3
2016-Apr-28 16:34N 56°00' E 012°43'2 2.2
2016-Apr-28 15:33N 55°58' E 012°44'0 0.0
2016-Apr-28 14:33N 55°58' E 012°44'0 0.0
2016-Apr-28 13:33N 55°58' E 012°44'0 0.0
2016-Apr-28 12:33N 55°58' E 012°44'0 0.0
2016-Apr-28 11:33N 55°58' E 012°44'0 0.0
2016-Apr-28 10:33N 55°58' E 012°44'0 0.0
2016-Apr-28 09:33N 55°58' E 012°44'0 0.0
2016-Apr-28 08:33N 55°58' E 012°44'0 0.0
2016-Apr-28 07:33N 55°58' E 012°44'0 0.0
2016-Apr-28 06:33N 55°58' E 012°44'0 0.0
2016-Apr-28 05:33N 55°58' E 012°44'0 0.0
2016-Apr-28 04:33N 55°58' E 012°44'0 0.0
2016-Apr-28 03:33N 55°58' E 012°44'0 0.0
2016-Apr-28 02:33N 55°58' E 012°44'0 0.0
2016-Apr-28 01:33N 55°58' E 012°44'0 0.0
2016-Apr-28 00:33N 55°58' E 012°44'0 0.0
2016-Apr-27 23:33N 55°58' E 012°44'0 0.0
2016-Apr-27 22:33N 55°58' E 012°44'0 0.0
2016-Apr-27 21:33N 55°58' E 012°44'0 0.0
2016-Apr-27 20:33N 55°58' E 012°44'0 0.0
2016-Apr-27 19:34N 55°58' E 012°44'0 0.0
2016-Apr-27 18:33N 55°58' E 012°44'0 0.0
2016-Apr-27 17:32N 55°58' E 012°44'0 0.0
2016-Apr-27 16:33N 55°58' E 012°44'1 0.7
2016-Apr-27 15:34N 55°57' E 012°44'1010.3
2016-Apr-27 14:33N 55°47' E 012°43'1010.4
2016-Apr-27 13:33N 55°37' E 012°42'10 9.8
2016-Apr-27 12:33N 55°27' E 012°42'9 9.0
2016-Apr-27 11:33N 55°18' E 012°45'10 9.7
2016-Apr-27 10:33N 55°16' E 013°01'25 9.9
2016-Apr-27 08:04N 55°14' E 013°45'510.1
2016-Apr-27 07:33N 55°14' E 013°54'1010.0
2016-Apr-27 06:33N 55°14' E 014°11'8 8.4
2016-Apr-27 05:33N 55°19' E 014°23'9 9.4
2016-Apr-27 04:33N 55°25' E 014°35'9 9.3
2016-Apr-27 03:33N 55°26' E 014°51'9 9.1
2016-Apr-27 02:33N 55°27' E 015°07'9 9.3
2016-Apr-27 01:33N 55°28' E 015°24'77 9.5
2016-Apr-26 17:26N 55°34' E 017°39'910.2
2016-Apr-26 16:33N 55°35' E 017°55'1010.4
2016-Apr-26 15:33N 55°36' E 018°13'1110.5
2016-Apr-26 14:32N 55°37' E 018°32'1510.2
2016-Apr-26 13:04N 55°38' E 018°58'62 1.6
2016-Apr-24 22:21N 54°43' E 019°46'  
Track history (hours):
 
Tides and Currents Weather Stations Pressure Air Temp Water Temp Dewpoint Dewpoint Depression Visibility Wind Speed Wind Dir Waves Ship Positions

Jomi

Last reported at 2016-May-03 06:33 UTC. Time now 2016-May-03 06:52 UTC.
Position N 55°54' E 012°45'.

Length 88 m; draft 6.2 m.

Type: Cargo ship. MMSI: 309701000.

Date/timePositionNaut miles runAvg speedWind from/ knotsBaromVisibWave heightAir tempDewpointWater temp
2016-May-03 06:33N 55°54' E 012°45'1111.1
2016-May-03 05:33N 55°43' E 012°41'1111.1
2016-May-03 04:33N 55°32' E 012°43'1110.8
2016-May-03 03:33N 55°21' E 012°42'9 9.3
2016-May-03 02:33N 55°16' E 012°55'1110.7
2016-May-03 01:33N 55°16' E 013°14'1111.0
2016-May-03 00:33N 55°15' E 013°33'1110.9
2016-May-02 23:33N 55°14' E 013°52'1111.0
2016-May-02 22:33N 55°14' E 014°12'1110.5
2016-May-02 21:33N 55°20' E 014°27'1110.7
2016-May-02 20:33N 55°27' E 014°41'1110.6
2016-May-02 19:33N 55°33' E 014°57'1110.6
2016-May-02 18:33N 55°38' E 015°13'1110.7
2016-May-02 17:33N 55°43' E 015°29'24 0.5
2016-Apr-30 17:33N 55°52' E 016°09'1111.2
2016-Apr-30 16:33N 55°46' E 015°52'1111.2
2016-Apr-30 15:33N 55°41' E 015°34'1111.1
2016-Apr-30 14:33N 55°35' E 015°18'1111.0
2016-Apr-30 13:33N 55°29' E 015°01'1111.3
2016-Apr-30 12:33N 55°24' E 014°43'1111.1
2016-Apr-30 11:33N 55°17' E 014°29'1010.5
2016-Apr-30 10:33N 55°11' E 014°13'1110.5
2016-Apr-30 09:33N 55°11' E 013°54'1010.4
2016-Apr-30 08:33N 55°13' E 013°36'2210.9
2016-Apr-30 06:33N 55°15' E 012°58'1110.7
2016-Apr-30 05:33N 55°18' E 012°40'10 9.7
2016-Apr-30 04:33N 55°27' E 012°41'1010.0
2016-Apr-30 03:33N 55°37' E 012°42'10 9.5
2016-Apr-30 02:33N 55°47' E 012°42'1010.0
2016-Apr-30 01:33N 55°57' E 012°44'4 3.7
2016-Apr-30 00:33N 56°00' E 012°43'0 0.0
2016-Apr-29 23:33N 56°00' E 012°43'0 0.0
2016-Apr-29 22:33N 56°00' E 012°43'0 0.0
2016-Apr-29 21:33N 56°00' E 012°43'0 0.0
2016-Apr-29 20:32N 56°00' E 012°43'0 0.0
2016-Apr-29 19:33N 56°00' E 012°43'0 0.0
2016-Apr-29 18:32N 56°00' E 012°43'0 0.0
2016-Apr-29 17:33N 56°00' E 012°43'0 0.0
2016-Apr-29 16:33N 56°00' E 012°43'0 0.0
2016-Apr-29 15:33N 56°00' E 012°43'0 0.0
2016-Apr-29 14:33N 56°00' E 012°43'0 0.0
2016-Apr-29 13:30N 56°00' E 012°43'0 0.0
2016-Apr-29 12:33N 56°00' E 012°43'0 0.0
2016-Apr-29 11:33N 56°00' E 012°43'0 0.0
2016-Apr-29 10:33N 56°00' E 012°43'0 0.0
2016-Apr-29 09:33N 56°00' E 012°43'0 0.0
2016-Apr-29 08:33N 56°00' E 012°43'0 0.0
2016-Apr-29 07:33N 56°00' E 012°43'0 0.0
2016-Apr-29 06:33N 56°00' E 012°43'0 0.0
2016-Apr-29 05:33N 56°00' E 012°43'0 0.0
2016-Apr-29 04:33N 56°00' E 012°43'0 0.0
2016-Apr-29 03:33N 56°00' E 012°43'0 0.0
2016-Apr-29 02:33N 56°00' E 012°43'0 0.0
2016-Apr-29 01:33N 56°00' E 012°43'0 0.0
2016-Apr-29 00:33N 56°00' E 012°43'0 0.0
2016-Apr-28 23:33N 56°00' E 012°43'0 0.0
2016-Apr-28 22:33N 56°00' E 012°43'0 0.0
2016-Apr-28 21:33N 56°00' E 012°43'0 0.0
2016-Apr-28 20:32N 56°00' E 012°43'0 0.0
2016-Apr-28 19:32N 56°00' E 012°43'0 0.0
2016-Apr-28 18:32N 56°00' E 012°43'0 0.0
2016-Apr-28 17:33N 56°00' E 012°43'0 0.3
2016-Apr-28 16:34N 56°00' E 012°43'2 2.2
2016-Apr-28 15:33N 55°58' E 012°44'0 0.0
2016-Apr-28 14:33N 55°58' E 012°44'0 0.0
2016-Apr-28 13:33N 55°58' E 012°44'0 0.0
2016-Apr-28 12:33N 55°58' E 012°44'0 0.0
2016-Apr-28 11:33N 55°58' E 012°44'0 0.0
2016-Apr-28 10:33N 55°58' E 012°44'0 0.0
2016-Apr-28 09:33N 55°58' E 012°44'0 0.0
2016-Apr-28 08:33N 55°58' E 012°44'0 0.0
2016-Apr-28 07:33N 55°58' E 012°44'0 0.0
2016-Apr-28 06:33N 55°58' E 012°44'0 0.0
2016-Apr-28 05:33N 55°58' E 012°44'0 0.0
2016-Apr-28 04:33N 55°58' E 012°44'0 0.0
2016-Apr-28 03:33N 55°58' E 012°44'0 0.0
2016-Apr-28 02:33N 55°58' E 012°44'0 0.0
2016-Apr-28 01:33N 55°58' E 012°44'0 0.0
2016-Apr-28 00:33N 55°58' E 012°44'0 0.0
2016-Apr-27 23:33N 55°58' E 012°44'0 0.0
2016-Apr-27 22:33N 55°58' E 012°44'0 0.0
2016-Apr-27 21:33N 55°58' E 012°44'0 0.0
2016-Apr-27 20:33N 55°58' E 012°44'0 0.0
2016-Apr-27 19:34N 55°58' E 012°44'0 0.0
2016-Apr-27 18:33N 55°58' E 012°44'0 0.0
2016-Apr-27 17:32N 55°58' E 012°44'0 0.0
2016-Apr-27 16:33N 55°58' E 012°44'1 0.7
2016-Apr-27 15:34N 55°57' E 012°44'1010.3
2016-Apr-27 14:33N 55°47' E 012°43'1010.4
2016-Apr-27 13:33N 55°37' E 012°42'10 9.8
2016-Apr-27 12:33N 55°27' E 012°42'9 9.0
2016-Apr-27 11:33N 55°18' E 012°45'10 9.7
2016-Apr-27 10:33N 55°16' E 013°01'25 9.9
2016-Apr-27 08:04N 55°14' E 013°45'510.1
2016-Apr-27 07:33N 55°14' E 013°54'1010.0
2016-Apr-27 06:33N 55°14' E 014°11'8 8.4
2016-Apr-27 05:33N 55°19' E 014°23'9 9.4
2016-Apr-27 04:33N 55°25' E 014°35'9 9.3
2016-Apr-27 03:33N 55°26' E 014°51'9 9.1
2016-Apr-27 02:33N 55°27' E 015°07'9 9.3
2016-Apr-27 01:33N 55°28' E 015°24'77 9.5
2016-Apr-26 17:26N 55°34' E 017°39'910.2
2016-Apr-26 16:33N 55°35' E 017°55'1010.4
2016-Apr-26 15:33N 55°36' E 018°13'1110.5
2016-Apr-26 14:32N 55°37' E 018°32'1510.2
2016-Apr-26 13:04N 55°38' E 018°58'62 1.6
2016-Apr-24 22:21N 54°43' E 019°46'  

Dump ship's entire track history